sensor_id;sensor_type;location;lat;lon;timestamp;pressure;altitude;pressure_sealevel;temperature
45701;BMP280;36277;32.852;-116.998;2023-04-03T00:00:18;100194.75;;;25.56
45701;BMP280;36277;32.852;-116.998;2023-04-03T00:02:44;100203.31;;;25.68
45701;BMP280;36277;32.852;-116.998;2023-04-03T00:05:10;100203.81;;;25.78
45701;BMP280;36277;32.852;-116.998;2023-04-03T00:07:37;100201.78;;;25.86
45701;BMP280;36277;32.852;-116.998;2023-04-03T00:10:03;100194.75;;;25.56
45701;BMP280;36277;32.852;-116.998;2023-04-03T00:12:30;100197.19;;;24.97
45701;BMP280;36277;32.852;-116.998;2023-04-03T00:14:56;100194.38;;;24.40
45701;BMP280;36277;32.852;-116.998;2023-04-03T00:17:22;100193.41;;;24.62
45701;BMP280;36277;32.852;-116.998;2023-04-03T00:19:48;100200.34;;;24.94
45701;BMP280;36277;32.852;-116.998;2023-04-03T00:22:15;100186.59;;;25.21
45701;BMP280;36277;32.852;-116.998;2023-04-03T00:24:41;100187.16;;;25.37
45701;BMP280;36277;32.852;-116.998;2023-04-03T00:27:07;100188.28;;;25.49
45701;BMP280;36277;32.852;-116.998;2023-04-03T00:29:33;100202.22;;;25.62
45701;BMP280;36277;32.852;-116.998;2023-04-03T00:32:00;100196.56;;;25.70
45701;BMP280;36277;32.852;-116.998;2023-04-03T00:34:26;100201.75;;;25.80
45701;BMP280;36277;32.852;-116.998;2023-04-03T00:36:52;100208.16;;;25.87
45701;BMP280;36277;32.852;-116.998;2023-04-03T00:39:19;100205.22;;;25.95
45701;BMP280;36277;32.852;-116.998;2023-04-03T00:41:45;100200.16;;;25.98
45701;BMP280;36277;32.852;-116.998;2023-04-03T00:46:47;100212.09;;;26.05
45701;BMP280;36277;32.852;-116.998;2023-04-03T00:49:13;100218.75;;;26.11
45701;BMP280;36277;32.852;-116.998;2023-04-03T00:51:39;100215.06;;;25.97
45701;BMP280;36277;32.852;-116.998;2023-04-03T00:54:06;100220.84;;;25.27
45701;BMP280;36277;32.852;-116.998;2023-04-03T00:56:35;100205.81;;;24.73
45701;BMP280;36277;32.852;-116.998;2023-04-03T00:59:13;100209.53;;;25.01
45701;BMP280;36277;32.852;-116.998;2023-04-03T01:01:42;100207.84;;;25.21
45701;BMP280;36277;32.852;-116.998;2023-04-03T01:04:41;100206.94;;;25.41
45701;BMP280;36277;32.852;-116.998;2023-04-03T01:07:15;100214.03;;;25.50
45701;BMP280;36277;32.852;-116.998;2023-04-03T01:09:42;100204.09;;;25.55
45701;BMP280;36277;32.852;-116.998;2023-04-03T01:14:57;100205.00;;;25.62
45701;BMP280;36277;32.852;-116.998;2023-04-03T01:17:34;100208.66;;;25.69
45701;BMP280;36277;32.852;-116.998;2023-04-03T01:25:45;100210.13;;;25.65
45701;BMP280;36277;32.852;-116.998;2023-04-03T01:28:18;100204.78;;;25.64
45701;BMP280;36277;32.852;-116.998;2023-04-03T01:31:00;100209.47;;;25.63
45701;BMP280;36277;32.852;-116.998;2023-04-03T01:33:28;100200.91;;;25.58
45701;BMP280;36277;32.852;-116.998;2023-04-03T01:35:54;100205.59;;;25.58
45701;BMP280;36277;32.852;-116.998;2023-04-03T01:38:21;100202.84;;;25.58
45701;BMP280;36277;32.852;-116.998;2023-04-03T01:40:47;100204.47;;;25.52
45701;BMP280;36277;32.852;-116.998;2023-04-03T01:43:13;100194.06;;;25.54
45701;BMP280;36277;32.852;-116.998;2023-04-03T01:45:40;100194.94;;;25.55
45701;BMP280;36277;32.852;-116.998;2023-04-03T01:48:06;100196.41;;;25.51
45701;BMP280;36277;32.852;-116.998;2023-04-03T01:50:32;100190.66;;;25.52
45701;BMP280;36277;32.852;-116.998;2023-04-03T01:52:58;100193.63;;;25.51
45701;BMP280;36277;32.852;-116.998;2023-04-03T01:55:25;100191.22;;;25.41
45701;BMP280;36277;32.852;-116.998;2023-04-03T01:57:51;100185.31;;;25.44
45701;BMP280;36277;32.852;-116.998;2023-04-03T02:00:17;100181.50;;;25.45
45701;BMP280;36277;32.852;-116.998;2023-04-03T02:02:44;100189.56;;;25.47
45701;BMP280;36277;32.852;-116.998;2023-04-03T02:05:10;100184.25;;;25.45
45701;BMP280;36277;32.852;-116.998;2023-04-03T02:07:36;100187.84;;;25.46
45701;BMP280;36277;32.852;-116.998;2023-04-03T02:10:03;100178.06;;;25.43
45701;BMP280;36277;32.852;-116.998;2023-04-03T02:12:29;100186.16;;;25.45
45701;BMP280;36277;32.852;-116.998;2023-04-03T02:14:55;100179.38;;;25.47
45701;BMP280;36277;32.852;-116.998;2023-04-03T02:17:22;100179.38;;;25.47
45701;BMP280;36277;32.852;-116.998;2023-04-03T02:19:48;100184.91;;;25.47
45701;BMP280;36277;32.852;-116.998;2023-04-03T02:22:14;100187.03;;;25.45
45701;BMP280;36277;32.852;-116.998;2023-04-03T02:24:41;100191.88;;;25.43
45701;BMP280;36277;32.852;-116.998;2023-04-03T02:27:07;100187.03;;;25.45
45701;BMP280;36277;32.852;-116.998;2023-04-03T02:29:42;100191.06;;;25.49
45701;BMP280;36277;32.852;-116.998;2023-04-03T02:32:08;100190.84;;;25.44
45701;BMP280;36277;32.852;-116.998;2023-04-03T02:34:34;100181.91;;;25.42
45701;BMP280;36277;32.852;-116.998;2023-04-03T02:37:01;100184.25;;;25.45
45701;BMP280;36277;32.852;-116.998;2023-04-03T02:39:27;100188.72;;;25.46
45701;BMP280;36277;32.852;-116.998;2023-04-03T02:41:53;100189.78;;;25.45
45701;BMP280;36277;32.852;-116.998;2023-04-03T02:44:20;100189.97;;;25.44
45701;BMP280;36277;32.852;-116.998;2023-04-03T02:46:46;100186.38;;;25.43
45701;BMP280;36277;32.852;-116.998;2023-04-03T02:49:12;100185.72;;;25.41
45701;BMP280;36277;32.852;-116.998;2023-04-03T02:51:39;100190.38;;;25.41
45701;BMP280;36277;32.852;-116.998;2023-04-03T02:54:05;100187.81;;;25.39
45701;BMP280;36277;32.852;-116.998;2023-04-03T02:56:31;100184.41;;;25.37
45701;BMP280;36277;32.852;-116.998;2023-04-03T02:58:57;100184.53;;;25.29
45701;BMP280;36277;32.852;-116.998;2023-04-03T03:01:24;100185.66;;;25.35
45701;BMP280;36277;32.852;-116.998;2023-04-03T03:03:50;100183.09;;;25.33
45701;BMP280;36277;32.852;-116.998;2023-04-03T03:06:17;100181.78;;;25.29
45701;BMP280;36277;32.852;-116.998;2023-04-03T03:08:43;100191.78;;;25.30
45701;BMP280;36277;32.852;-116.998;2023-04-03T03:11:10;100191.13;;;25.28
45701;BMP280;36277;32.852;-116.998;2023-04-03T03:13:37;100192.81;;;25.29
45701;BMP280;36277;32.852;-116.998;2023-04-03T03:16:03;100190.28;;;25.28
45701;BMP280;36277;32.852;-116.998;2023-04-03T03:18:30;100189.22;;;25.29
45701;BMP280;36277;32.852;-116.998;2023-04-03T03:20:58;100202.97;;;25.23
45701;BMP280;36277;32.852;-116.998;2023-04-03T03:23:27;100200.44;;;25.27
45701;BMP280;36277;32.852;-116.998;2023-04-03T03:26:02;100201.78;;;25.31
45701;BMP280;36277;32.852;-116.998;2023-04-03T03:28:29;100201.72;;;25.25
45701;BMP280;36277;32.852;-116.998;2023-04-03T03:30:55;100210.19;;;25.24
45701;BMP280;36277;32.852;-116.998;2023-04-03T03:33:22;100212.13;;;25.23
45701;BMP280;36277;32.852;-116.998;2023-04-03T03:35:48;100208.50;;;25.23
45701;BMP280;36277;32.852;-116.998;2023-04-03T03:38:15;100206.81;;;25.22
45701;BMP280;36277;32.852;-116.998;2023-04-03T03:40:41;100212.50;;;25.20
45701;BMP280;36277;32.852;-116.998;2023-04-03T03:43:10;100209.97;;;25.19
45701;BMP280;36277;32.852;-116.998;2023-04-03T03:45:36;100211.19;;;25.16
45701;BMP280;36277;32.852;-116.998;2023-04-03T03:48:03;100218.63;;;25.16
45701;BMP280;36277;32.852;-116.998;2023-04-03T03:50:29;100216.94;;;25.15
45701;BMP280;36277;32.852;-116.998;2023-04-03T03:52:55;100216.25;;;25.13
45701;BMP280;36277;32.852;-116.998;2023-04-03T03:55:22;100220.25;;;25.10
45701;BMP280;36277;32.852;-116.998;2023-04-03T03:57:48;100226.63;;;25.11
45701;BMP280;36277;32.852;-116.998;2023-04-03T04:00:15;100223.19;;;25.09
45701;BMP280;36277;32.852;-116.998;2023-04-03T04:02:42;100229.59;;;25.09
45701;BMP280;36277;32.852;-116.998;2023-04-03T04:05:08;100229.13;;;25.06
45701;BMP280;36277;32.852;-116.998;2023-04-03T04:07:35;100230.16;;;25.05
45701;BMP280;36277;32.852;-116.998;2023-04-03T04:10:01;100233.31;;;25.02
45701;BMP280;36277;32.852;-116.998;2023-04-03T04:12:28;100233.31;;;25.02
45701;BMP280;36277;32.852;-116.998;2023-04-03T04:14:54;100231.63;;;25.01
45701;BMP280;36277;32.852;-116.998;2023-04-03T04:17:21;100232.47;;;25.01
45701;BMP280;36277;32.852;-116.998;2023-04-03T04:19:48;100227.56;;;24.97
45701;BMP280;36277;32.852;-116.998;2023-04-03T04:22:14;100232.81;;;24.92
45701;BMP280;36277;32.852;-116.998;2023-04-03T04:24:40;100233.66;;;24.92
45701;BMP280;36277;32.852;-116.998;2023-04-03T04:27:06;100237.28;;;24.93
45701;BMP280;36277;32.852;-116.998;2023-04-03T04:29:32;100233.88;;;24.91
45701;BMP280;36277;32.852;-116.998;2023-04-03T04:32:02;100225.59;;;24.91
45701;BMP280;36277;32.852;-116.998;2023-04-03T04:34:29;100224.25;;;24.87
45701;BMP280;36277;32.852;-116.998;2023-04-03T04:36:56;100230.84;;;24.86
45701;BMP280;36277;32.852;-116.998;2023-04-03T04:39:22;100229.13;;;24.85
45701;BMP280;36277;32.852;-116.998;2023-04-03T04:41:48;100233.97;;;24.83
45701;BMP280;36277;32.852;-116.998;2023-04-03T04:44:14;100232.28;;;24.82
45701;BMP280;36277;32.852;-116.998;2023-04-03T04:46:41;100236.94;;;24.81
45701;BMP280;36277;32.852;-116.998;2023-04-03T04:49:07;100236.47;;;24.78
45701;BMP280;36277;32.852;-116.998;2023-04-03T04:51:34;100236.69;;;24.76
45701;BMP280;36277;32.852;-116.998;2023-04-03T04:54:00;100234.75;;;24.77
45701;BMP280;36277;32.852;-116.998;2023-04-03T04:56:26;100238.78;;;24.74
45701;BMP280;36277;32.852;-116.998;2023-04-03T04:58:53;100237.91;;;24.74
45701;BMP280;36277;32.852;-116.998;2023-04-03T05:01:19;100240.88;;;24.72
45701;BMP280;36277;32.852;-116.998;2023-04-03T05:03:45;100236.41;;;24.71
45701;BMP280;36277;32.852;-116.998;2023-04-03T05:06:13;100239.38;;;24.70
45701;BMP280;36277;32.852;-116.998;2023-04-03T05:08:40;100236.78;;;24.68
45701;BMP280;36277;32.852;-116.998;2023-04-03T05:11:06;100233.38;;;24.66
45701;BMP280;36277;32.852;-116.998;2023-04-03T05:13:32;100237.16;;;24.65
45701;BMP280;36277;32.852;-116.998;2023-04-03T05:15:58;100233.75;;;24.63
45701;BMP280;36277;32.852;-116.998;2023-04-03T05:18:25;100230.16;;;24.63
45701;BMP280;36277;32.852;-116.998;2023-04-03T05:20:51;100231.00;;;24.63
45701;BMP280;36277;32.852;-116.998;2023-04-03T05:23:17;100228.16;;;24.57
45701;BMP280;36277;32.852;-116.998;2023-04-03T05:25:44;100223.31;;;24.59
45701;BMP280;36277;32.852;-116.998;2023-04-03T05:28:13;100224.34;;;24.58
45701;BMP280;36277;32.852;-116.998;2023-04-03T05:30:39;100210.75;;;24.56
45701;BMP280;36277;32.852;-116.998;2023-04-03T05:33:05;100215.78;;;24.53
45701;BMP280;36277;32.852;-116.998;2023-04-03T05:35:31;100221.31;;;24.53
45701;BMP280;36277;32.852;-116.998;2023-04-03T05:37:58;100214.97;;;24.52
45701;BMP280;36277;32.852;-116.998;2023-04-03T05:40:24;100204.31;;;24.49
45701;BMP280;36277;32.852;-116.998;2023-04-03T05:42:51;100207.25;;;24.48
45701;BMP280;36277;32.852;-116.998;2023-04-03T05:45:19;100209.16;;;24.47
45701;BMP280;36277;32.852;-116.998;2023-04-03T05:47:45;100201.06;;;24.46
45701;BMP280;36277;32.852;-116.998;2023-04-03T05:50:13;100203.81;;;24.46
45701;BMP280;36277;32.852;-116.998;2023-04-03T05:52:43;100207.25;;;24.48
45701;BMP280;36277;32.852;-116.998;2023-04-03T05:55:11;100205.91;;;24.44
45701;BMP280;36277;32.852;-116.998;2023-04-03T05:57:37;100196.75;;;24.43
45701;BMP280;36277;32.852;-116.998;2023-04-03T06:00:05;100193.16;;;24.43
45701;BMP280;36277;32.852;-116.998;2023-04-03T06:02:32;100190.78;;;24.40
45701;BMP280;36277;32.852;-116.998;2023-04-03T06:04:58;100192.03;;;24.37
45701;BMP280;36277;32.852;-116.998;2023-04-03T06:07:25;100185.84;;;24.35
45701;BMP280;36277;32.852;-116.998;2023-04-03T06:09:55;100190.50;;;24.35
45701;BMP280;36277;32.852;-116.998;2023-04-03T06:12:22;100191.34;;;24.35
45701;BMP280;36277;32.852;-116.998;2023-04-03T06:14:48;100187.09;;;24.33
45701;BMP280;36277;32.852;-116.998;2023-04-03T06:17:17;100187.09;;;24.33
45701;BMP280;36277;32.852;-116.998;2023-04-03T06:19:44;100179.88;;;24.32
45701;BMP280;36277;32.852;-116.998;2023-04-03T06:22:11;100177.50;;;24.29
45701;BMP280;36277;32.852;-116.998;2023-04-03T06:24:37;100172.19;;;24.27
45701;BMP280;36277;32.852;-116.998;2023-04-03T06:27:04;100171.31;;;24.27
45701;BMP280;36277;32.852;-116.998;2023-04-03T06:29:31;100168.56;;;24.27
45701;BMP280;36277;32.852;-116.998;2023-04-03T06:31:57;100166.84;;;24.26
45701;BMP280;36277;32.852;-116.998;2023-04-03T06:34:23;100167.06;;;24.24
45701;BMP280;36277;32.852;-116.998;2023-04-03T06:36:50;100169.16;;;24.22
45701;BMP280;36277;32.852;-116.998;2023-04-03T06:39:18;100166.84;;;24.26
45701;BMP280;36277;32.852;-116.998;2023-04-03T06:41:49;100160.00;;;24.22
45701;BMP280;36277;32.852;-116.998;2023-04-03T06:44:16;100160.22;;;24.20
45701;BMP280;36277;32.852;-116.998;2023-04-03T06:46:43;100158.94;;;24.23
45701;BMP280;36277;32.852;-116.998;2023-04-03T06:49:12;100152.97;;;24.19
45701;BMP280;36277;32.852;-116.998;2023-04-03T06:51:38;100159.38;;;24.20
45701;BMP280;36277;32.852;-116.998;2023-04-03T06:54:06;100152.31;;;24.17
45701;BMP280;36277;32.852;-116.998;2023-04-03T06:56:34;100154.41;;;24.15
45701;BMP280;36277;32.852;-116.998;2023-04-03T06:59:00;100149.09;;;24.14
45701;BMP280;36277;32.852;-116.998;2023-04-03T07:03:56;100145.47;;;24.13
45701;BMP280;36277;32.852;-116.998;2023-04-03T07:06:22;100143.59;;;24.14
45701;BMP280;36277;32.852;-116.998;2023-04-03T07:08:49;100145.47;;;24.13
45701;BMP280;36277;32.852;-116.998;2023-04-03T07:11:16;100140.16;;;24.12
45701;BMP280;36277;32.852;-116.998;2023-04-03T07:13:42;100140.16;;;24.12
45701;BMP280;36277;32.852;-116.998;2023-04-03T07:16:09;100139.13;;;24.13
45701;BMP280;36277;32.852;-116.998;2023-04-03T07:18:36;100138.47;;;24.11
45701;BMP280;36277;32.852;-116.998;2023-04-03T07:21:04;100139.13;;;24.13
45701;BMP280;36277;32.852;-116.998;2023-04-03T07:23:30;100139.13;;;24.13
45701;BMP280;36277;32.852;-116.998;2023-04-03T07:25:57;100139.13;;;24.13
45701;BMP280;36277;32.852;-116.998;2023-04-03T07:28:23;100136.38;;;24.13
45701;BMP280;36277;32.852;-116.998;2023-04-03T07:30:58;100138.25;;;24.13
45701;BMP280;36277;32.852;-116.998;2023-04-03T07:33:25;100131.22;;;24.10
45701;BMP280;36277;32.852;-116.998;2023-04-03T07:35:51;100135.69;;;24.11
45701;BMP280;36277;32.852;-116.998;2023-04-03T07:38:18;100136.75;;;24.10
45701;BMP280;36277;32.852;-116.998;2023-04-03T07:40:48;100134.66;;;24.12
45701;BMP280;36277;32.852;-116.998;2023-04-03T07:43:16;100136.75;;;24.10
45701;BMP280;36277;32.852;-116.998;2023-04-03T07:45:42;100135.03;;;24.09
45701;BMP280;36277;32.852;-116.998;2023-04-03T07:48:10;100135.03;;;24.09
45701;BMP280;36277;32.852;-116.998;2023-04-03T07:50:37;100143.31;;;24.09
45701;BMP280;36277;32.852;-116.998;2023-04-03T07:53:03;100134.16;;;24.09
45701;BMP280;36277;32.852;-116.998;2023-04-03T07:55:32;100135.88;;;24.10
45701;BMP280;36277;32.852;-116.998;2023-04-03T07:57:58;100142.66;;;24.07
45701;BMP280;36277;32.852;-116.998;2023-04-03T08:00:24;100134.38;;;24.07
45701;BMP280;36277;32.852;-116.998;2023-04-03T08:02:51;100135.41;;;24.06
45701;BMP280;36277;32.852;-116.998;2023-04-03T08:05:21;100124.84;;;24.10
45701;BMP280;36277;32.852;-116.998;2023-04-03T08:07:48;100121.63;;;24.06
45701;BMP280;36277;32.852;-116.998;2023-04-03T08:10:15;100111.47;;;24.07
45701;BMP280;36277;32.852;-116.998;2023-04-03T08:12:41;100117.16;;;24.05
45701;BMP280;36277;32.852;-116.998;2023-04-03T08:15:08;100112.69;;;24.04
45701;BMP280;36277;32.852;-116.998;2023-04-03T08:17:35;100109.94;;;24.04
45701;BMP280;36277;32.852;-116.998;2023-04-03T08:20:02;100116.50;;;24.03
45701;BMP280;36277;32.852;-116.998;2023-04-03T08:22:29;100111.84;;;24.04
45701;BMP280;36277;32.852;-116.998;2023-04-03T08:24:56;100112.03;;;24.02
45701;BMP280;36277;32.852;-116.998;2023-04-03T08:27:22;100114.78;;;24.02
45701;BMP280;36277;32.852;-116.998;2023-04-03T08:29:48;100108.63;;;24.00
45701;BMP280;36277;32.852;-116.998;2023-04-03T08:32:15;100113.06;;;24.01
45701;BMP280;36277;32.852;-116.998;2023-04-03T08:34:41;100112.41;;;23.99
45701;BMP280;36277;32.852;-116.998;2023-04-03T08:37:07;100110.72;;;23.98
45701;BMP280;36277;32.852;-116.998;2023-04-03T08:39:34;100103.47;;;23.97
45701;BMP280;36277;32.852;-116.998;2023-04-03T08:42:05;100101.38;;;23.99
45701;BMP280;36277;32.852;-116.998;2023-04-03T08:49:42;100098.38;;;23.94
45701;BMP280;36277;32.852;-116.998;2023-04-03T08:52:18;100088.19;;;23.95
45701;BMP280;36277;32.852;-116.998;2023-04-03T08:54:51;100083.72;;;23.94
45701;BMP280;36277;32.852;-116.998;2023-04-03T08:57:44;100079.47;;;23.91
45701;BMP280;36277;32.852;-116.998;2023-04-03T09:00:53;100080.69;;;23.89
45701;BMP280;36277;32.852;-116.998;2023-04-03T09:03:18;100077.03;;;23.82
45701;BMP280;36277;32.852;-116.998;2023-04-03T09:08:18;100069.59;;;23.82
45701;BMP280;36277;32.852;-116.998;2023-04-03T09:10:49;100067.72;;;23.83
45701;BMP280;36277;32.852;-116.998;2023-04-03T09:13:39;100068.34;;;23.85
45701;BMP280;36277;32.852;-116.998;2023-04-03T09:16:43;100062.59;;;23.80
45701;BMP280;36277;32.852;-116.998;2023-04-03T09:19:28;100062.06;;;23.76
45701;BMP280;36277;32.852;-116.998;2023-04-03T09:22:26;100070.53;;;23.75
45701;BMP280;36277;32.852;-116.998;2023-04-03T09:25:17;100055.22;;;23.72
45701;BMP280;36277;32.852;-116.998;2023-04-03T09:27:44;100064.06;;;23.68
45701;BMP280;36277;32.852;-116.998;2023-04-03T09:30:19;100053.50;;;23.71
45701;BMP280;36277;32.852;-116.998;2023-04-03T09:32:48;100064.06;;;23.68
45701;BMP280;36277;32.852;-116.998;2023-04-03T09:35:25;100052.88;;;23.69
45701;BMP280;36277;32.852;-116.998;2023-04-03T09:37:54;100047.75;;;23.66
45701;BMP280;36277;32.852;-116.998;2023-04-03T09:40:31;100041.19;;;23.67
45701;BMP280;36277;32.852;-116.998;2023-04-03T09:43:01;100041.56;;;23.64
45701;BMP280;36277;32.852;-116.998;2023-04-03T09:45:31;100036.06;;;23.64
45701;BMP280;36277;32.852;-116.998;2023-04-03T09:48:22;100042.41;;;23.65
45701;BMP280;36277;32.852;-116.998;2023-04-03T09:50:53;100037.28;;;23.62
45701;BMP280;36277;32.852;-116.998;2023-04-03T09:56:28;100036.44;;;23.61
45701;BMP280;36277;32.852;-116.998;2023-04-03T10:01:36;100022.00;;;23.59
45701;BMP280;36277;32.852;-116.998;2023-04-03T10:04:14;100018.81;;;23.56
45701;BMP280;36277;32.852;-116.998;2023-04-03T10:06:44;100017.94;;;23.55
45701;BMP280;36277;32.852;-116.998;2023-04-03T10:09:31;100007.78;;;23.56
45701;BMP280;36277;32.852;-116.998;2023-04-03T10:12:05;100017.25;;;23.53
45701;BMP280;36277;32.852;-116.998;2023-04-03T10:14:40;100016.44;;;23.53
45701;BMP280;36277;32.852;-116.998;2023-04-03T10:23:11;100007.13;;;23.39
45701;BMP280;36277;32.852;-116.998;2023-04-03T10:25:48;100000.59;;;23.40
45701;BMP280;36277;32.852;-116.998;2023-04-03T10:28:35;100004.19;;;23.41
45701;BMP280;36277;32.852;-116.998;2023-04-03T10:31:33;100005.44;;;23.38
45701;BMP280;36277;32.852;-116.998;2023-04-03T10:36:49;99992.50;;;23.39
45701;BMP280;36277;32.852;-116.998;2023-04-03T10:39:30;99989.47;;;23.34
45701;BMP280;36277;32.852;-116.998;2023-04-03T10:48:36;99988.53;;;23.27
45701;BMP280;36277;32.852;-116.998;2023-04-03T10:51:17;99988.53;;;23.27
45701;BMP280;36277;32.852;-116.998;2023-04-03T10:56:48;99983.59;;;23.22
45701;BMP280;36277;32.852;-116.998;2023-04-03T10:59:27;99984.25;;;23.24
45701;BMP280;36277;32.852;-116.998;2023-04-03T11:01:57;99982.09;;;23.20
45701;BMP280;36277;32.852;-116.998;2023-04-03T11:04:29;99980.16;;;23.20
45701;BMP280;36277;32.852;-116.998;2023-04-03T11:07:22;99977.41;;;23.20
45701;BMP280;36277;32.852;-116.998;2023-04-03T11:09:57;99967.84;;;23.16
45701;BMP280;36277;32.852;-116.998;2023-04-03T11:12:43;99980.75;;;23.16
45701;BMP280;36277;32.852;-116.998;2023-04-03T11:15:17;99971.16;;;23.12
45701;BMP280;36277;32.852;-116.998;2023-04-03T11:18:09;99975.63;;;23.13
45701;BMP280;36277;32.852;-116.998;2023-04-03T11:20:37;99978.25;;;23.06
45701;BMP280;36277;32.852;-116.998;2023-04-03T11:23:26;99975.84;;;23.11
45701;BMP280;36277;32.852;-116.998;2023-04-03T11:26:22;99967.94;;;23.08
45701;BMP280;36277;32.852;-116.998;2023-04-03T11:29:01;99967.94;;;23.08
45701;BMP280;36277;32.852;-116.998;2023-04-03T11:37:15;99977.44;;;23.06
45701;BMP280;36277;32.852;-116.998;2023-04-03T11:40:00;99968.28;;;23.05
45701;BMP280;36277;32.852;-116.998;2023-04-03T11:42:40;99973.81;;;23.05
45701;BMP280;36277;32.852;-116.998;2023-04-03T12:21:23;99951.69;;;22.85
45701;BMP280;36277;32.852;-116.998;2023-04-03T12:40:57;99944.56;;;22.76
45701;BMP280;36277;32.852;-116.998;2023-04-03T12:46:22;99945.44;;;22.76
45701;BMP280;36277;32.852;-116.998;2023-04-03T12:48:50;99947.03;;;22.71
45701;BMP280;36277;32.852;-116.998;2023-04-03T12:51:38;99948.38;;;22.75
45701;BMP280;36277;32.852;-116.998;2023-04-03T12:54:38;99940.47;;;22.72
45701;BMP280;36277;32.852;-116.998;2023-04-03T12:57:23;99946.38;;;22.69
45701;BMP280;36277;32.852;-116.998;2023-04-03T12:59:50;99939.72;;;22.63
45701;BMP280;36277;32.852;-116.998;2023-04-03T13:02:29;99941.94;;;22.68
45701;BMP280;36277;32.852;-116.998;2023-04-03T13:04:58;99938.91;;;22.63
45701;BMP280;36277;32.852;-116.998;2023-04-03T13:07:48;99934.06;;;22.65
45701;BMP280;36277;32.852;-116.998;2023-04-03T13:10:16;99940.97;;;22.61
45701;BMP280;36277;32.852;-116.998;2023-04-03T13:13:06;99943.16;;;22.65
45701;BMP280;36277;32.852;-116.998;2023-04-03T13:15:47;99950.72;;;22.63
45701;BMP280;36277;32.852;-116.998;2023-04-03T13:18:37;99949.41;;;22.59
45701;BMP280;36277;32.852;-116.998;2023-04-03T13:21:16;99955.94;;;22.58
45701;BMP280;36277;32.852;-116.998;2023-04-03T13:23:47;99954.44;;;22.56
45701;BMP280;36277;32.852;-116.998;2023-04-03T13:26:19;99962.69;;;22.56
45701;BMP280;36277;32.852;-116.998;2023-04-03T13:28:46;99958.22;;;22.55
45701;BMP280;36277;32.852;-116.998;2023-04-03T13:33:57;99965.06;;;22.59
45701;BMP280;36277;32.852;-116.998;2023-04-03T13:36:37;99964.84;;;22.60
45701;BMP280;36277;32.852;-116.998;2023-04-03T13:39:22;99969.31;;;22.61
45701;BMP280;36277;32.852;-116.998;2023-04-03T13:41:52;99975.03;;;22.60
45701;BMP280;36277;32.852;-116.998;2023-04-03T13:46:51;99967.59;;;22.60
45701;BMP280;36277;32.852;-116.998;2023-04-03T13:51:52;99968.84;;;22.58
45701;BMP280;36277;32.852;-116.998;2023-04-03T13:54:33;99972.94;;;22.62
45701;BMP280;36277;32.852;-116.998;2023-04-03T13:57:01;99977.28;;;22.56
45701;BMP280;36277;32.852;-116.998;2023-04-03T13:59:35;99973.31;;;22.59
45701;BMP280;36277;32.852;-116.998;2023-04-03T14:04:30;99978.16;;;22.57
45701;BMP280;36277;32.852;-116.998;2023-04-03T14:06:58;99984.00;;;22.54
45701;BMP280;36277;32.852;-116.998;2023-04-03T14:09:26;99983.84;;;22.55
45701;BMP280;36277;32.852;-116.998;2023-04-03T14:11:55;99993.78;;;22.56
45701;BMP280;36277;32.852;-116.998;2023-04-03T14:14:27;99990.84;;;22.58
45701;BMP280;36277;32.852;-116.998;2023-04-03T14:16:56;99995.31;;;22.59
45701;BMP280;36277;32.852;-116.998;2023-04-03T14:19:28;99990.00;;;22.57
45701;BMP280;36277;32.852;-116.998;2023-04-03T14:21:55;99989.16;;;22.57
45701;BMP280;36277;32.852;-116.998;2023-04-03T14:24:22;99987.63;;;22.54
45701;BMP280;36277;32.852;-116.998;2023-04-03T14:26:51;99988.28;;;22.56
45701;BMP280;36277;32.852;-116.998;2023-04-03T14:29:18;99983.19;;;22.53
45701;BMP280;36277;32.852;-116.998;2023-04-03T14:31:47;99987.44;;;22.56
45701;BMP280;36277;32.852;-116.998;2023-04-03T14:34:14;99974.72;;;22.55
45701;BMP280;36277;32.852;-116.998;2023-04-03T14:36:42;99979.75;;;22.51
45701;BMP280;36277;32.852;-116.998;2023-04-03T14:39:15;99985.72;;;22.55
45701;BMP280;36277;32.852;-116.998;2023-04-03T14:41:43;99978.06;;;22.50
45701;BMP280;36277;32.852;-116.998;2023-04-03T14:44:10;99982.69;;;22.50
45701;BMP280;36277;32.852;-116.998;2023-04-03T14:46:39;99986.97;;;22.52
45701;BMP280;36277;32.852;-116.998;2023-04-03T14:49:19;99984.00;;;22.54
45701;BMP280;36277;32.852;-116.998;2023-04-03T14:51:47;99987.88;;;22.45
45701;BMP280;36277;32.852;-116.998;2023-04-03T14:54:17;99989.13;;;22.42
45701;BMP280;36277;32.852;-116.998;2023-04-03T14:56:45;99987.88;;;22.45
45701;BMP280;36277;32.852;-116.998;2023-04-03T14:59:13;99978.22;;;22.49
45701;BMP280;36277;32.852;-116.998;2023-04-03T15:01:40;99989.31;;;22.41
45701;BMP280;36277;32.852;-116.998;2023-04-03T15:04:14;99983.34;;;22.52
45701;BMP280;36277;32.852;-116.998;2023-04-03T15:06:41;99975.47;;;22.49
45701;BMP280;36277;32.852;-116.998;2023-04-03T15:09:19;99978.53;;;22.54
45701;BMP280;36277;32.852;-116.998;2023-04-03T15:11:46;99978.22;;;22.49
45701;BMP280;36277;32.852;-116.998;2023-04-03T15:14:13;99984.75;;;22.48
45701;BMP280;36277;32.852;-116.998;2023-04-03T15:16:39;99981.84;;;22.49
45701;BMP280;36277;32.852;-116.998;2023-04-03T15:19:05;99977.19;;;22.50
45701;BMP280;36277;32.852;-116.998;2023-04-03T15:21:32;99972.53;;;22.50
45701;BMP280;36277;32.852;-116.998;2023-04-03T15:23:58;99974.25;;;22.51
45701;BMP280;36277;32.852;-116.998;2023-04-03T15:26:24;99971.69;;;22.50
45701;BMP280;36277;32.852;-116.998;2023-04-03T15:28:51;99965.13;;;22.51
45701;BMP280;36277;32.852;-116.998;2023-04-03T15:31:17;99978.06;;;22.50
45701;BMP280;36277;32.852;-116.998;2023-04-03T15:33:43;99985.44;;;22.50
45701;BMP280;36277;32.852;-116.998;2023-04-03T15:36:10;99989.88;;;22.51